Time;durP1;ratioP1;P1;durP2;ratioP2;P2;SDS_P1;SDS_P2;PMS_P1;PMS_P2;Temp;Humidity;BMP_temperature;BMP_pressure;BME280_temperature;BME280_humidity;BME280_pressure;Samples;Min_cycle;Max_cycle;Signal;HPM_P1;HPM_P2
2021/01/10 00:00:25;;;;;;;55.40;27.20;;;;;;;;;;5111937;28;20215;-49
2021/01/10 00:02:51;;;;;;;53.30;25.80;;;;;;;;;;5112007;28;20173;-49
2021/01/10 00:05:44;;;;;;;54.22;24.88;;;;;;;;;;5111638;28;20198;-49
2021/01/10 00:08:10;;;;;;;51.47;25.63;;;;;;;;;;5090019;28;20582;-49
2021/01/10 00:10:36;;;;;;;52.72;25.95;;;;;;;;;;5111742;28;20161;-50
2021/01/10 00:13:02;;;;;;;60.35;27.58;;;;;;;;;;5107942;28;20181;-50
2021/01/10 00:15:29;;;;;;;56.03;25.85;;;;;;;;;;5105854;28;20174;-49
2021/01/10 00:17:55;;;;;;;49.35;25.15;;;;;;;;;;5111576;28;20715;-51
2021/01/10 00:20:21;;;;;;;57.13;27.00;;;;;;;;;;5111576;28;20193;-49
2021/01/10 00:22:54;;;;;;;52.80;25.25;;;;;;;;;;5111597;28;20403;-52
2021/01/10 00:25:20;;;;;;;52.97;24.65;;;;;;;;;;5111168;28;20252;-49
2021/01/10 00:27:46;;;;;;;61.30;28.67;;;;;;;;;;5111411;28;20202;-49
2021/01/10 00:30:14;;;;;;;45.00;24.48;;;;;;;;;;5111552;28;20167;-49
2021/01/10 00:32:40;;;;;;;52.55;26.08;;;;;;;;;;5111516;28;20196;-50
2021/01/10 00:35:07;;;;;;;53.10;25.88;;;;;;;;;;5111423;28;20651;-50
2021/01/10 00:37:33;;;;;;;53.22;25.88;;;;;;;;;;5110932;28;20550;-49
2021/01/10 00:39:59;;;;;;;64.33;27.93;;;;;;;;;;5106042;28;20182;-54
2021/01/10 00:42:25;;;;;;;57.30;26.33;;;;;;;;;;5110924;28;20417;-49
2021/01/10 00:44:51;;;;;;;51.17;25.17;;;;;;;;;;5111616;28;20532;-50
2021/01/10 00:47:17;;;;;;;52.30;25.42;;;;;;;;;;5110769;28;20325;-50
2021/01/10 00:49:43;;;;;;;54.67;24.33;;;;;;;;;;5111308;28;20169;-49
2021/01/10 00:52:09;;;;;;;46.90;24.63;;;;;;;;;;5111226;28;20232;-49
2021/01/10 00:54:35;;;;;;;52.60;25.33;;;;;;;;;;5111074;28;20165;-49
2021/01/10 00:57:01;;;;;;;55.30;23.67;;;;;;;;;;5110869;28;20438;-49
2021/01/10 00:59:27;;;;;;;45.00;24.13;;;;;;;;;;5111035;28;20405;-50
2021/01/10 01:01:53;;;;;;;52.93;26.30;;;;;;;;;;5111109;28;20406;-50
2021/01/10 01:04:20;;;;;;;47.95;24.67;;;;;;;;;;5106418;28;20443;-49
2021/01/10 01:06:46;;;;;;;56.85;28.00;;;;;;;;;;5110569;28;20698;-49
2021/01/10 01:09:12;;;;;;;57.63;28.00;;;;;;;;;;5110949;28;20213;-49
2021/01/10 01:11:39;;;;;;;56.00;27.08;;;;;;;;;;5111058;28;20252;-51
2021/01/10 01:14:05;;;;;;;46.63;24.80;;;;;;;;;;5110869;28;20161;-49
2021/01/10 01:16:32;;;;;;;55.88;25.77;;;;;;;;;;5110686;28;20221;-51
2021/01/10 01:18:58;;;;;;;58.28;27.15;;;;;;;;;;5111014;28;20169;-49
2021/01/10 01:21:24;;;;;;;56.90;24.73;;;;;;;;;;5110804;28;20739;-49
2021/01/10 01:23:51;;;;;;;59.50;27.33;;;;;;;;;;5110879;28;20251;-50
2021/01/10 01:26:23;;;;;;;54.78;24.73;;;;;;;;;;5111038;28;20232;-49
2021/01/10 01:28:49;;;;;;;52.38;25.25;;;;;;;;;;5114920;28;20203;-50
2021/01/10 01:31:16;;;;;;;52.05;24.58;;;;;;;;;;5110052;28;20177;-50
2021/01/10 01:33:43;;;;;;;52.47;24.80;;;;;;;;;;5114892;28;20174;-50
2021/01/10 01:36:12;;;;;;;54.53;25.70;;;;;;;;;;5114251;28;20260;-51
2021/01/10 01:38:39;;;;;;;56.85;27.17;;;;;;;;;;5114797;28;20784;-49
2021/01/10 01:41:08;;;;;;;55.55;26.70;;;;;;;;;;5114517;28;20735;-51
2021/01/10 01:43:34;;;;;;;61.58;28.80;;;;;;;;;;5114760;28;20170;-49
2021/01/10 01:46:04;;;;;;;53.88;25.17;;;;;;;;;;5114395;28;20191;-51
2021/01/10 01:48:30;;;;;;;65.78;27.90;;;;;;;;;;5114580;28;20192;-50
2021/01/10 01:50:57;;;;;;;57.40;26.17;;;;;;;;;;5114568;28;20207;-49
2021/01/10 01:53:23;;;;;;;62.15;26.27;;;;;;;;;;5114448;28;20177;-52
2021/01/10 01:55:52;;;;;;;55.90;27.17;;;;;;;;;;5114435;28;20186;-51
2021/01/10 01:58:18;;;;;;;57.67;27.25;;;;;;;;;;5110186;28;20648;-50
2021/01/10 02:00:43;;;;;;;57.63;26.47;;;;;;;;;;5114367;28;20253;-51
2021/01/10 02:03:10;;;;;;;52.57;27.30;;;;;;;;;;5113634;28;20747;-51
2021/01/10 02:05:37;;;;;;;70.43;28.83;;;;;;;;;;5113375;28;20409;-50
2021/01/10 02:08:13;;;;;;;56.75;25.58;;;;;;;;;;5113880;28;20212;-52
2021/01/10 02:10:41;;;;;;;62.00;26.40;;;;;;;;;;5114305;28;20165;-49
2021/01/10 02:13:12;;;;;;;65.45;28.00;;;;;;;;;;5114207;28;20191;-49
2021/01/10 02:15:39;;;;;;;82.50;28.10;;;;;;;;;;5113873;28;20161;-51
2021/01/10 02:18:07;;;;;;;71.57;29.08;;;;;;;;;;5114000;28;20221;-49
2021/01/10 02:20:34;;;;;;;91.72;30.33;;;;;;;;;;5109096;28;20222;-49
2021/01/10 02:23:09;;;;;;;64.43;28.02;;;;;;;;;;5112745;28;20205;-49
2021/01/10 02:25:37;;;;;;;70.47;28.25;;;;;;;;;;5113531;28;20165;-49
2021/01/10 02:28:04;;;;;;;75.63;27.85;;;;;;;;;;5113689;28;20222;-49
2021/01/10 02:30:32;;;;;;;71.20;30.00;;;;;;;;;;5113679;28;20931;-49
2021/01/10 02:33:09;;;;;;;68.07;28.52;;;;;;;;;;5113951;28;20177;-49
2021/01/10 02:35:36;;;;;;;77.85;30.92;;;;;;;;;;5113379;28;20161;-49
2021/01/10 02:38:09;;;;;;;69.57;28.88;;;;;;;;;;5108646;28;20269;-50
2021/01/10 02:40:39;;;;;;;77.90;32.03;;;;;;;;;;5072878;28;20180;-50
2021/01/10 02:43:08;;;;;;;70.68;31.60;;;;;;;;;;5072895;28;20692;-49
2021/01/10 02:45:35;;;;;;;77.95;32.28;;;;;;;;;;5072802;28;20182;-49
2021/01/10 02:48:01;;;;;;;73.38;30.67;;;;;;;;;;5072665;28;20201;-50
2021/01/10 02:50:27;;;;;;;71.57;29.40;;;;;;;;;;5073080;28;20563;-51
2021/01/10 02:52:53;;;;;;;73.63;31.38;;;;;;;;;;5072602;28;20163;-51
2021/01/10 02:55:19;;;;;;;74.90;30.20;;;;;;;;;;5072397;28;20162;-51
2021/01/10 02:57:51;;;;;;;76.00;30.70;;;;;;;;;;5072486;28;20676;-51
2021/01/10 03:00:17;;;;;;;71.97;33.13;;;;;;;;;;5072648;28;20646;-50
2021/01/10 03:02:45;;;;;;;69.13;29.50;;;;;;;;;;5072467;28;20170;-51
2021/01/10 03:05:12;;;;;;;80.47;32.55;;;;;;;;;;5072541;28;20249;-50
2021/01/10 03:07:39;;;;;;;67.25;29.13;;;;;;;;;;5099021;28;20205;-50
2021/01/10 03:10:05;;;;;;;71.90;29.40;;;;;;;;;;5112952;28;20169;-51
2021/01/10 03:12:31;;;;;;;71.50;29.83;;;;;;;;;;5113004;28;20215;-49
2021/01/10 03:14:58;;;;;;;83.53;31.93;;;;;;;;;;5112782;28;20164;-50
2021/01/10 03:17:36;;;;;;;76.10;28.42;;;;;;;;;;5112456;28;20449;-51
2021/01/10 03:20:05;;;;;;;78.40;27.92;;;;;;;;;;5112676;28;20168;-50
2021/01/10 03:22:31;;;;;;;85.95;31.00;;;;;;;;;;5112627;28;20175;-50
2021/01/10 03:24:56;;;;;;;72.90;30.67;;;;;;;;;;5112560;28;20257;-50
2021/01/10 03:27:23;;;;;;;82.23;32.63;;;;;;;;;;5112270;28;20454;-51
2021/01/10 03:29:49;;;;;;;74.43;30.63;;;;;;;;;;5112520;28;20404;-52
2021/01/10 03:32:14;;;;;;;72.67;29.70;;;;;;;;;;5112572;28;20218;-49
2021/01/10 03:34:41;;;;;;;78.27;29.60;;;;;;;;;;5112435;28;20402;-49
2021/01/10 03:37:07;;;;;;;77.32;31.98;;;;;;;;;;5107910;28;21179;-49
2021/01/10 03:39:33;;;;;;;87.07;33.70;;;;;;;;;;5112431;28;20175;-49
2021/01/10 03:41:59;;;;;;;78.82;30.73;;;;;;;;;;5112275;28;20664;-49
2021/01/10 03:44:26;;;;;;;87.60;33.10;;;;;;;;;;5112359;28;20180;-51
2021/01/10 03:46:52;;;;;;;69.88;28.98;;;;;;;;;;5111725;28;20193;-51
2021/01/10 03:49:18;;;;;;;86.45;32.10;;;;;;;;;;5111948;28;20173;-49
2021/01/10 03:51:44;;;;;;;86.03;33.13;;;;;;;;;;5111349;28;20647;-51
2021/01/10 03:54:10;;;;;;;79.40;33.07;;;;;;;;;;5112161;28;20391;-51
2021/01/10 03:56:36;;;;;;;77.87;30.77;;;;;;;;;;5111635;28;20415;-51
2021/01/10 03:59:02;;;;;;;81.00;30.27;;;;;;;;;;5112099;28;20768;-51
2021/01/10 04:01:28;;;;;;;68.90;27.70;;;;;;;;;;5111883;28;20919;-51
2021/01/10 04:03:54;;;;;;;76.30;32.57;;;;;;;;;;5112001;28;20406;-51
2021/01/10 04:06:20;;;;;;;80.10;31.70;;;;;;;;;;5111655;28;20450;-49
2021/01/10 04:08:46;;;;;;;81.18;31.42;;;;;;;;;;5107348;28;20462;-52
2021/01/10 04:11:13;;;;;;;76.50;29.92;;;;;;;;;;5112122;28;20195;-50
2021/01/10 04:13:39;;;;;;;70.38;30.45;;;;;;;;;;5111720;28;20204;-50
2021/01/10 04:16:05;;;;;;;86.53;32.08;;;;;;;;;;5111437;28;20599;-50
2021/01/10 04:18:31;;;;;;;78.18;30.67;;;;;;;;;;5111879;28;20169;-49
2021/01/10 04:20:57;;;;;;;83.13;29.52;;;;;;;;;;5111896;28;20655;-49
2021/01/10 04:23:23;;;;;;;79.28;31.60;;;;;;;;;;5111839;28;20181;-49
2021/01/10 04:25:50;;;;;;;82.87;32.53;;;;;;;;;;5111319;28;20676;-49
2021/01/10 04:28:17;;;;;;;62.83;30.05;;;;;;;;;;5111504;28;20458;-49
2021/01/10 04:30:43;;;;;;;72.72;29.08;;;;;;;;;;5111597;28;20161;-49
2021/01/10 04:33:09;;;;;;;76.90;29.48;;;;;;;;;;5111512;28;20260;-52
2021/01/10 04:35:35;;;;;;;78.15;30.58;;;;;;;;;;5111100;28;20244;-51
2021/01/10 04:38:01;;;;;;;74.00;31.17;;;;;;;;;;5106941;28;20334;-51
2021/01/10 04:40:27;;;;;;;77.30;28.70;;;;;;;;;;5111360;28;20403;-49
2021/01/10 04:42:53;;;;;;;75.57;29.77;;;;;;;;;;5111467;28;20398;-49
2021/01/10 04:45:19;;;;;;;79.93;30.55;;;;;;;;;;5110902;28;21130;-50
2021/01/10 04:47:45;;;;;;;75.05;29.20;;;;;;;;;;5111145;28;20251;-50
2021/01/10 04:50:12;;;;;;;79.03;30.80;;;;;;;;;;5111082;28;20183;-50
2021/01/10 04:52:39;;;;;;;80.93;27.45;;;;;;;;;;5111240;28;20161;-50
2021/01/10 04:55:05;;;;;;;64.90;28.90;;;;;;;;;;5111239;28;20160;-49
2021/01/10 04:57:33;;;;;;;66.50;27.40;;;;;;;;;;5110710;28;20195;-51
2021/01/10 04:59:59;;;;;;;69.93;31.73;;;;;;;;;;5111161;28;20716;-49
2021/01/10 05:02:26;;;;;;;68.50;28.40;;;;;;;;;;5115667;28;20617;-49
2021/01/10 05:04:53;;;;;;;61.47;27.63;;;;;;;;;;5117979;28;20165;-50
2021/01/10 05:07:19;;;;;;;70.03;28.15;;;;;;;;;;5112810;28;20200;-49
2021/01/10 05:09:46;;;;;;;73.18;27.77;;;;;;;;;;5117909;28;20221;-49
2021/01/10 05:12:12;;;;;;;71.00;29.60;;;;;;;;;;5117738;28;20160;-49
2021/01/10 05:14:38;;;;;;;81.50;28.50;;;;;;;;;;5117858;28;20168;-49
2021/01/10 05:17:04;;;;;;;68.60;27.47;;;;;;;;;;5117157;28;20977;-50
2021/01/10 05:19:30;;;;;;;64.75;26.10;;;;;;;;;;5118007;28;20456;-51
2021/01/10 05:21:56;;;;;;;70.78;28.33;;;;;;;;;;5117808;28;20588;-49
2021/01/10 05:24:22;;;;;;;61.33;26.35;;;;;;;;;;5117651;28;20267;-49
2021/01/10 05:26:49;;;;;;;65.33;27.17;;;;;;;;;;5117289;28;20645;-50
2021/01/10 05:29:15;;;;;;;63.78;26.40;;;;;;;;;;5117543;28;20406;-50
2021/01/10 05:31:42;;;;;;;55.85;26.77;;;;;;;;;;5117642;28;20165;-49
2021/01/10 05:34:09;;;;;;;67.38;27.90;;;;;;;;;;5117746;28;20230;-51
2021/01/10 05:36:37;;;;;;;67.93;27.48;;;;;;;;;;5115543;28;20192;-49
2021/01/10 05:39:17;;;;;;;61.45;27.40;;;;;;;;;;5117517;28;20165;-50
2021/01/10 05:41:49;;;;;;;74.20;27.65;;;;;;;;;;5117582;28;20546;-49
2021/01/10 05:44:15;;;;;;;55.58;26.48;;;;;;;;;;5117419;28;20226;-50
2021/01/10 05:46:41;;;;;;;67.70;27.07;;;;;;;;;;5117195;28;20197;-50
2021/01/10 05:49:16;;;;;;;64.27;28.30;;;;;;;;;;5117588;28;20386;-50
2021/01/10 05:51:42;;;;;;;62.72;25.95;;;;;;;;;;5117750;28;20398;-49
2021/01/10 05:54:08;;;;;;;69.83;29.00;;;;;;;;;;5117650;28;20165;-49
2021/01/10 05:56:34;;;;;;;66.03;25.93;;;;;;;;;;5117091;28;20493;-49
2021/01/10 05:59:00;;;;;;;56.78;27.23;;;;;;;;;;5117487;28;20403;-49
2021/01/10 06:01:26;;;;;;;57.70;24.05;;;;;;;;;;5117526;28;20177;-50
2021/01/10 06:03:53;;;;;;;72.72;25.40;;;;;;;;;;5117447;28;20177;-49
2021/01/10 06:06:19;;;;;;;54.05;25.33;;;;;;;;;;5112361;28;20191;-49
2021/01/10 06:08:46;;;;;;;60.92;25.15;;;;;;;;;;5117358;28;20225;-50
2021/01/10 06:11:15;;;;;;;58.30;26.42;;;;;;;;;;5117217;28;20194;-49
2021/01/10 06:13:48;;;;;;;63.10;28.73;;;;;;;;;;5114285;28;20157;-49
2021/01/10 06:16:15;;;;;;;65.82;27.05;;;;;;;;;;5113552;28;20558;-50
2021/01/10 06:18:43;;;;;;;63.30;27.85;;;;;;;;;;5114198;28;20177;-49
2021/01/10 06:21:16;;;;;;;53.15;24.65;;;;;;;;;;5114074;28;20568;-50
2021/01/10 06:23:43;;;;;;;58.65;28.73;;;;;;;;;;5113845;28;20683;-51
2021/01/10 06:26:09;;;;;;;54.72;26.20;;;;;;;;;;5113813;28;20553;-49
2021/01/10 06:28:37;;;;;;;58.13;27.00;;;;;;;;;;5113605;28;20279;-49
2021/01/10 06:31:04;;;;;;;65.25;26.40;;;;;;;;;;5113826;28;20436;-50
2021/01/10 06:33:34;;;;;;;61.15;26.40;;;;;;;;;;5113663;28;20244;-49
2021/01/10 06:36:04;;;;;;;68.20;26.33;;;;;;;;;;5111283;28;20215;-51
2021/01/10 06:38:38;;;;;;;59.30;25.98;;;;;;;;;;5113552;28;20165;-49
2021/01/10 06:41:16;;;;;;;60.40;27.00;;;;;;;;;;5113820;28;20222;-50
2021/01/10 06:43:45;;;;;;;51.85;24.63;;;;;;;;;;5113452;28;20248;-50
2021/01/10 06:46:11;;;;;;;57.90;25.75;;;;;;;;;;5113197;28;20186;-51
2021/01/10 06:48:37;;;;;;;53.20;23.40;;;;;;;;;;5113244;28;20655;-52
2021/01/10 06:51:04;;;;;;;56.80;24.95;;;;;;;;;;5113382;28;20173;-51
2021/01/10 06:53:30;;;;;;;51.72;23.45;;;;;;;;;;5113414;28;20161;-50
2021/01/10 06:55:56;;;;;;;59.40;26.65;;;;;;;;;;5112851;28;20169;-49
2021/01/10 06:58:22;;;;;;;56.67;25.65;;;;;;;;;;5113319;28;20170;-50
2021/01/10 07:00:52;;;;;;;52.93;24.90;;;;;;;;;;5113139;28;20167;-50
2021/01/10 07:03:18;;;;;;;51.55;23.90;;;;;;;;;;5113146;28;20458;-51
2021/01/10 07:05:57;;;;;;;52.77;25.13;;;;;;;;;;5112841;28;20196;-50
2021/01/10 07:08:33;;;;;;;41.80;22.52;;;;;;;;;;5111009;28;20964;-49
2021/01/10 07:11:18;;;;;;;53.58;23.13;;;;;;;;;;5112952;28;20161;-50
2021/01/10 07:13:44;;;;;;;60.08;24.00;;;;;;;;;;5112976;28;20184;-49
2021/01/10 07:16:19;;;;;;;46.27;22.90;;;;;;;;;;5112443;28;20562;-49
2021/01/10 07:18:58;;;;;;;51.80;25.90;;;;;;;;;;5113002;28;20762;-49
2021/01/10 07:21:33;;;;;;;53.10;22.48;;;;;;;;;;5112786;28;20185;-49
2021/01/10 07:24:21;;;;;;;48.65;23.23;;;;;;;;;;5112682;28;20248;-49
2021/01/10 07:26:51;;;;;;;44.22;22.75;;;;;;;;;;5112288;28;20672;-50
2021/01/10 07:29:29;;;;;;;43.20;23.70;;;;;;;;;;5112841;28;20549;-51
2021/01/10 07:32:03;;;;;;;49.45;23.85;;;;;;;;;;5112831;28;20164;-51
2021/01/10 07:34:30;;;;;;;45.80;22.17;;;;;;;;;;5112804;28;20202;-50
2021/01/10 07:36:57;;;;;;;42.83;21.73;;;;;;;;;;5110265;28;20684;-49
2021/01/10 07:39:25;;;;;;;41.67;22.58;;;;;;;;;;5112456;28;20217;-49
2021/01/10 07:41:52;;;;;;;43.20;22.67;;;;;;;;;;5112537;28;20157;-49
2021/01/10 07:44:18;;;;;;;44.58;22.30;;;;;;;;;;5112372;28;20158;-50
2021/01/10 07:46:51;;;;;;;45.38;22.42;;;;;;;;;;5112081;28;20238;-49
2021/01/10 07:49:22;;;;;;;51.75;26.30;;;;;;;;;;5112162;28;20168;-51
2021/01/10 07:51:49;;;;;;;49.60;22.58;;;;;;;;;;5112351;28;20533;-49
2021/01/10 07:54:15;;;;;;;43.55;23.48;;;;;;;;;;5112141;28;20188;-49
2021/01/10 07:56:41;;;;;;;46.92;22.35;;;;;;;;;;5111808;28;20176;-49
2021/01/10 07:59:17;;;;;;;52.33;26.15;;;;;;;;;;5111989;28;20201;-49
2021/01/10 08:02:01;;;;;;;44.72;23.02;;;;;;;;;;5112013;28;20227;-49
2021/01/10 08:04:32;;;;;;;50.08;22.17;;;;;;;;;;5111450;28;20174;-49
2021/01/10 08:06:59;;;;;;;51.22;22.95;;;;;;;;;;5105601;28;20208;-49
2021/01/10 08:09:31;;;;;;;43.88;22.42;;;;;;;;;;5111425;28;20157;-50
2021/01/10 08:11:56;;;;;;;51.63;25.13;;;;;;;;;;5111037;28;20597;-49
2021/01/10 08:14:22;;;;;;;41.97;21.23;;;;;;;;;;5111295;28;20161;-49
2021/01/10 08:16:48;;;;;;;41.30;21.77;;;;;;;;;;5110508;28;20892;-49
2021/01/10 08:19:16;;;;;;;51.27;22.97;;;;;;;;;;5111709;28;20533;-49
2021/01/10 08:21:42;;;;;;;49.28;22.85;;;;;;;;;;5111655;28;20880;-49
2021/01/10 08:24:08;;;;;;;39.10;20.80;;;;;;;;;;5111662;28;20166;-51
2021/01/10 08:26:40;;;;;;;47.03;24.13;;;;;;;;;;5110951;28;20411;-49
2021/01/10 08:29:06;;;;;;;46.47;23.25;;;;;;;;;;5111518;28;20196;-50
2021/01/10 08:31:33;;;;;;;47.75;23.92;;;;;;;;;;5111418;28;20190;-49
2021/01/10 08:34:02;;;;;;;45.80;23.48;;;;;;;;;;5111549;28;20163;-49
2021/01/10 08:36:28;;;;;;;41.67;20.05;;;;;;;;;;5106789;28;20202;-51
2021/01/10 08:38:54;;;;;;;44.67;23.10;;;;;;;;;;5111294;28;20200;-49
2021/01/10 08:41:42;;;;;;;54.20;23.53;;;;;;;;;;5111427;28;20194;-50
2021/01/10 08:44:12;;;;;;;40.67;22.27;;;;;;;;;;5111353;28;20402;-52
2021/01/10 08:46:40;;;;;;;49.30;21.98;;;;;;;;;;5111028;28;20200;-50
2021/01/10 08:49:06;;;;;;;41.78;21.77;;;;;;;;;;5111107;28;20558;-49
2021/01/10 08:51:33;;;;;;;53.13;22.33;;;;;;;;;;5111255;28;20199;-49
2021/01/10 08:54:00;;;;;;;43.03;22.85;;;;;;;;;;5111116;28;20218;-50
2021/01/10 08:56:26;;;;;;;40.95;21.65;;;;;;;;;;5110960;28;20185;-49
2021/01/10 08:58:56;;;;;;;49.03;21.23;;;;;;;;;;5111211;28;20200;-50
2021/01/10 09:01:23;;;;;;;43.20;22.88;;;;;;;;;;5111250;28;20249;-49
2021/01/10 09:04:15;;;;;;;42.42;21.85;;;;;;;;;;5111255;28;20555;-49
2021/01/10 09:06:43;;;;;;;42.38;23.05;;;;;;;;;;5105200;28;20209;-49
2021/01/10 09:09:21;;;;;;;37.45;19.85;;;;;;;;;;5109717;28;20200;-52
2021/01/10 09:11:51;;;;;;;42.35;20.77;;;;;;;;;;5111197;28;20719;-49
2021/01/10 09:14:19;;;;;;;44.88;23.75;;;;;;;;;;5111075;28;20255;-49
2021/01/10 09:16:46;;;;;;;35.65;19.45;;;;;;;;;;5110456;28;20710;-49
2021/01/10 09:19:13;;;;;;;38.83;20.50;;;;;;;;;;5111174;28;20181;-50
2021/01/10 09:21:46;;;;;;;36.80;19.02;;;;;;;;;;5110848;28;20626;-51
2021/01/10 09:24:12;;;;;;;39.53;18.90;;;;;;;;;;5110995;28;20194;-50
2021/01/10 09:26:38;;;;;;;27.55;16.67;;;;;;;;;;5110483;28;20183;-52
2021/01/10 09:29:16;;;;;;;37.30;19.50;;;;;;;;;;5110781;28;20230;-51
2021/01/10 09:31:43;;;;;;;35.78;18.40;;;;;;;;;;5102137;28;20178;-50
2021/01/10 09:34:09;;;;;;;35.85;19.75;;;;;;;;;;5090183;28;20163;-50
2021/01/10 09:36:35;;;;;;;37.67;17.70;;;;;;;;;;5094456;28;20203;-50
2021/01/10 09:39:01;;;;;;;39.53;18.88;;;;;;;;;;5111171;28;20218;-50
2021/01/10 09:41:27;;;;;;;32.30;16.88;;;;;;;;;;5110757;28;20641;-50
2021/01/10 09:43:58;;;;;;;37.17;20.70;;;;;;;;;;5110560;28;20185;-50
2021/01/10 09:46:39;;;;;;;55.83;20.48;;;;;;;;;;5110399;28;20422;-49
2021/01/10 09:49:06;;;;;;;35.05;18.25;;;;;;;;;;5112289;28;20201;-50
2021/01/10 09:51:38;;;;;;;34.63;17.27;;;;;;;;;;5114500;28;20546;-50
2021/01/10 09:54:10;;;;;;;33.40;19.20;;;;;;;;;;5114301;28;20158;-49
2021/01/10 09:56:39;;;;;;;38.90;18.73;;;;;;;;;;5114175;28;20650;-49
2021/01/10 09:59:05;;;;;;;35.17;19.05;;;;;;;;;;5114278;28;20296;-49
2021/01/10 10:01:36;;;;;;;31.65;16.90;;;;;;;;;;5114343;28;20207;-49
2021/01/10 10:04:02;;;;;;;36.88;18.45;;;;;;;;;;5114275;28;20178;-49
2021/01/10 10:06:28;;;;;;;30.05;16.23;;;;;;;;;;5109365;28;20186;-49
2021/01/10 10:08:55;;;;;;;35.50;18.37;;;;;;;;;;5114133;28;20305;-49
2021/01/10 10:11:21;;;;;;;31.58;16.83;;;;;;;;;;5114060;28;20409;-51
2021/01/10 10:13:47;;;;;;;34.60;16.35;;;;;;;;;;5114184;28;20171;-52
2021/01/10 10:16:19;;;;;;;35.53;16.47;;;;;;;;;;5113503;28;20199;-51
2021/01/10 10:18:44;;;;;;;30.05;15.70;;;;;;;;;;5114114;28;20990;-49
2021/01/10 10:21:10;;;;;;;33.97;16.00;;;;;;;;;;5113676;28;20197;-49
2021/01/10 10:23:36;;;;;;;27.03;16.90;;;;;;;;;;5114138;28;20520;-49
2021/01/10 10:26:04;;;;;;;28.63;15.83;;;;;;;;;;5113473;28;20429;-50
2021/01/10 10:28:30;;;;;;;30.42;15.15;;;;;;;;;;5113892;28;20469;-49
2021/01/10 10:30:56;;;;;;;30.83;14.93;;;;;;;;;;5113802;28;20167;-50
2021/01/10 10:33:22;;;;;;;34.10;17.00;;;;;;;;;;5113623;28;20409;-50
2021/01/10 10:35:48;;;;;;;29.07;16.20;;;;;;;;;;5113326;28;20393;-50
2021/01/10 10:38:14;;;;;;;35.70;16.55;;;;;;;;;;5108825;28;20809;-50
2021/01/10 10:40:40;;;;;;;34.53;16.83;;;;;;;;;;5113708;28;20163;-50
2021/01/10 10:43:06;;;;;;;35.42;17.98;;;;;;;;;;5113488;28;21014;-50
2021/01/10 10:45:32;;;;;;;40.92;16.90;;;;;;;;;;5113451;28;20296;-50
2021/01/10 10:47:58;;;;;;;35.65;18.67;;;;;;;;;;5113362;28;20197;-51
2021/01/10 10:50:25;;;;;;;35.37;17.87;;;;;;;;;;5113469;28;20516;-50
2021/01/10 10:52:51;;;;;;;33.35;16.85;;;;;;;;;;5113705;28;20950;-50
2021/01/10 10:55:19;;;;;;;34.33;16.45;;;;;;;;;;5113319;28;20176;-49
2021/01/10 10:57:45;;;;;;;33.67;18.08;;;;;;;;;;5113710;28;20283;-50
2021/01/10 11:00:12;;;;;;;32.88;18.33;;;;;;;;;;5112888;28;20200;-50
2021/01/10 11:02:38;;;;;;;42.20;19.38;;;;;;;;;;5112761;28;20159;-50
2021/01/10 11:05:04;;;;;;;39.67;18.87;;;;;;;;;;5112330;28;20652;-49
2021/01/10 11:07:33;;;;;;;33.92;17.85;;;;;;;;;;5107572;28;20798;-49
2021/01/10 11:09:59;;;;;;;39.92;20.42;;;;;;;;;;5113135;28;20631;-50
2021/01/10 11:12:25;;;;;;;35.80;18.30;;;;;;;;;;5112921;28;20216;-50
2021/01/10 11:14:51;;;;;;;31.33;17.33;;;;;;;;;;5112895;28;20405;-51
2021/01/10 11:17:17;;;;;;;44.33;20.20;;;;;;;;;;5112210;28;20472;-51
2021/01/10 11:19:43;;;;;;;37.17;18.77;;;;;;;;;;5111782;28;20179;-52
2021/01/10 11:22:09;;;;;;;33.38;18.10;;;;;;;;;;5111700;28;20175;-52
2021/01/10 11:24:36;;;;;;;36.27;17.87;;;;;;;;;;5112683;28;20171;-52
2021/01/10 11:27:02;;;;;;;31.27;18.00;;;;;;;;;;5112136;28;20779;-50
2021/01/10 11:29:28;;;;;;;35.90;16.90;;;;;;;;;;5112518;28;20195;-49
2021/01/10 11:31:54;;;;;;;38.33;18.30;;;;;;;;;;5112508;28;20624;-49
2021/01/10 11:34:21;;;;;;;27.67;16.30;;;;;;;;;;5112314;28;20423;-50
2021/01/10 11:36:48;;;;;;;30.65;16.63;;;;;;;;;;5107401;28;20192;-50
2021/01/10 11:39:16;;;;;;;28.80;16.10;;;;;;;;;;5112364;28;20207;-50
2021/01/10 11:41:43;;;;;;;33.13;16.27;;;;;;;;;;5112432;28;20165;-51
2021/01/10 11:44:09;;;;;;;29.90;15.05;;;;;;;;;;5112258;28;20675;-51
2021/01/10 11:46:35;;;;;;;35.15;17.48;;;;;;;;;;5111849;28;20585;-49
2021/01/10 11:49:01;;;;;;;27.70;15.43;;;;;;;;;;5112277;28;20203;-50
2021/01/10 11:51:27;;;;;;;28.40;16.10;;;;;;;;;;5112057;28;20395;-49
2021/01/10 11:53:53;;;;;;;25.77;15.00;;;;;;;;;;5112189;28;20896;-49
2021/01/10 11:56:19;;;;;;;26.87;14.57;;;;;;;;;;5111778;28;20268;-50
2021/01/10 11:58:45;;;;;;;26.33;15.40;;;;;;;;;;5112138;28;20421;-50
2021/01/10 12:01:11;;;;;;;29.53;15.07;;;;;;;;;;5111773;28;20434;-51
2021/01/10 12:03:37;;;;;;;27.55;14.70;;;;;;;;;;5112040;28;20398;-52
2021/01/10 12:06:04;;;;;;;23.45;13.77;;;;;;;;;;5111468;28;20640;-50
2021/01/10 12:08:30;;;;;;;28.67;15.10;;;;;;;;;;5107381;28;20584;-49
2021/01/10 12:10:56;;;;;;;24.17;13.82;;;;;;;;;;5111155;28;20175;-49
2021/01/10 12:13:23;;;;;;;30.83;13.70;;;;;;;;;;5111732;28;20526;-50
2021/01/10 12:15:49;;;;;;;27.90;13.80;;;;;;;;;;5111293;28;20267;-50
2021/01/10 12:18:15;;;;;;;24.60;13.00;;;;;;;;;;5111671;28;20625;-49
2021/01/10 12:20:41;;;;;;;23.55;12.48;;;;;;;;;;5111729;28;20395;-49
2021/01/10 12:23:07;;;;;;;24.48;12.40;;;;;;;;;;5111540;28;20176;-52
2021/01/10 12:25:33;;;;;;;20.63;11.85;;;;;;;;;;5111335;28;20602;-51
2021/01/10 12:27:59;;;;;;;25.95;13.60;;;;;;;;;;5111473;28;20264;-51
2021/01/10 12:30:26;;;;;;;24.53;13.80;;;;;;;;;;5111384;28;20263;-50
2021/01/10 12:32:52;;;;;;;23.77;12.88;;;;;;;;;;5111775;28;20427;-51
2021/01/10 12:35:19;;;;;;;26.05;13.57;;;;;;;;;;5111121;28;20168;-51
2021/01/10 12:37:46;;;;;;;23.15;13.45;;;;;;;;;;5109842;28;20232;-50
2021/01/10 12:40:12;;;;;;;32.42;15.30;;;;;;;;;;5111388;28;20693;-49
2021/01/10 12:42:39;;;;;;;23.63;14.15;;;;;;;;;;5111315;28;20207;-53
2021/01/10 12:45:06;;;;;;;24.10;14.35;;;;;;;;;;5111186;28;20191;-50
2021/01/10 12:47:32;;;;;;;23.98;13.85;;;;;;;;;;5111097;28;20203;-50
2021/01/10 12:49:58;;;;;;;24.77;14.10;;;;;;;;;;5111502;28;20528;-49
2021/01/10 12:52:24;;;;;;;32.43;15.03;;;;;;;;;;5111173;28;20391;-49
2021/01/10 12:54:50;;;;;;;24.73;14.23;;;;;;;;;;5111312;28;20400;-50
2021/01/10 12:57:16;;;;;;;26.63;15.67;;;;;;;;;;5110705;28;20426;-50
2021/01/10 12:59:42;;;;;;;30.00;15.23;;;;;;;;;;5111119;28;20402;-49
2021/01/10 13:02:09;;;;;;;26.67;16.02;;;;;;;;;;5111035;28;20217;-49
2021/01/10 13:04:39;;;;;;;34.97;15.35;;;;;;;;;;5111271;28;20232;-49
2021/01/10 13:07:05;;;;;;;29.52;15.82;;;;;;;;;;5106201;28;20582;-49
2021/01/10 13:09:31;;;;;;;30.98;16.05;;;;;;;;;;5109813;28;20204;-51
2021/01/10 13:12:01;;;;;;;33.33;16.50;;;;;;;;;;5085717;28;20185;-52
2021/01/10 13:14:27;;;;;;;35.20;16.35;;;;;;;;;;5070636;28;20176;-49
2021/01/10 13:16:53;;;;;;;35.67;17.17;;;;;;;;;;5069958;28;20281;-49
2021/01/10 13:19:19;;;;;;;35.83;17.70;;;;;;;;;;5070139;28;20407;-52
2021/01/10 13:21:45;;;;;;;39.33;18.30;;;;;;;;;;5070414;28;20166;-50
2021/01/10 13:24:12;;;;;;;26.23;16.10;;;;;;;;;;5074364;28;20394;-51
2021/01/10 13:26:38;;;;;;;36.70;19.33;;;;;;;;;;5074038;28;20282;-49
2021/01/10 13:29:04;;;;;;;32.63;17.70;;;;;;;;;;5074418;28;20207;-52
2021/01/10 13:31:42;;;;;;;25.55;16.88;;;;;;;;;;5074052;28;20191;-48
2021/01/10 13:34:08;;;;;;;28.93;16.50;;;;;;;;;;5072609;28;20168;-50
2021/01/10 13:36:34;;;;;;;23.63;15.43;;;;;;;;;;5083805;28;20451;-50
2021/01/10 13:39:00;;;;;;;33.90;19.07;;;;;;;;;;5114755;28;20411;-51
2021/01/10 13:41:27;;;;;;;31.37;19.17;;;;;;;;;;5114251;28;20393;-49
2021/01/10 13:43:53;;;;;;;37.57;18.60;;;;;;;;;;5114775;28;20906;-49
2021/01/10 13:46:21;;;;;;;33.57;18.20;;;;;;;;;;5114215;28;20415;-48
2021/01/10 13:48:49;;;;;;;32.43;18.17;;;;;;;;;;5114596;28;20449;-49
2021/01/10 13:51:25;;;;;;;28.70;16.70;;;;;;;;;;5114550;28;20898;-48
2021/01/10 13:53:51;;;;;;;38.27;17.30;;;;;;;;;;5114243;28;20390;-49
2021/01/10 13:56:18;;;;;;;28.40;16.73;;;;;;;;;;5114211;28;20414;-48
2021/01/10 13:58:44;;;;;;;37.10;20.42;;;;;;;;;;5114351;28;20459;-49
2021/01/10 14:01:10;;;;;;;38.53;18.83;;;;;;;;;;5114465;28;20165;-49
2021/01/10 14:03:37;;;;;;;37.38;18.73;;;;;;;;;;5114116;28;20172;-50
2021/01/10 14:06:04;;;;;;;39.85;18.80;;;;;;;;;;5113891;28;20169;-49
2021/01/10 14:08:30;;;;;;;38.15;18.50;;;;;;;;;;5108856;28;20200;-50
2021/01/10 14:10:56;;;;;;;36.80;18.77;;;;;;;;;;5114246;28;20200;-51
2021/01/10 14:13:22;;;;;;;43.83;19.25;;;;;;;;;;5114179;28;20184;-51
2021/01/10 14:15:48;;;;;;;42.43;18.00;;;;;;;;;;5112135;28;20226;-52
2021/01/10 14:18:14;;;;;;;47.50;19.87;;;;;;;;;;5114078;28;20925;-48